sensor_id;sensor_type;location;lat;lon;timestamp;P1;durP1;ratioP1;P2;durP2;ratioP2
28960;SDS011;16068;42.896;20.868;2022-12-29T00:01:05;50.72;;;24.98;;
28960;SDS011;16068;42.896;20.868;2022-12-29T00:03:51;47.45;;;23.70;;
28960;SDS011;16068;42.896;20.868;2022-12-29T00:06:37;44.92;;;21.95;;
28960;SDS011;16068;42.896;20.868;2022-12-29T00:09:23;44.83;;;22.17;;
28960;SDS011;16068;42.896;20.868;2022-12-29T00:12:08;43.47;;;22.00;;
28960;SDS011;16068;42.896;20.868;2022-12-29T00:14:54;45.35;;;22.60;;
28960;SDS011;16068;42.896;20.868;2022-12-29T00:30:21;45.35;;;22.60;;
28960;SDS011;16068;42.896;20.868;2022-12-29T00:33:28;41.92;;;21.80;;
28960;SDS011;16068;42.896;20.868;2022-12-29T00:36:36;49.65;;;23.50;;
28960;SDS011;16068;42.896;20.868;2022-12-29T00:39:25;40.10;;;20.30;;
28960;SDS011;16068;42.896;20.868;2022-12-29T00:42:30;38.88;;;18.70;;
28960;SDS011;16068;42.896;20.868;2022-12-29T00:45:34;37.17;;;20.17;;
28960;SDS011;16068;42.896;20.868;2022-12-29T00:48:22;41.25;;;20.38;;
28960;SDS011;16068;42.896;20.868;2022-12-29T00:51:26;34.75;;;18.90;;
28960;SDS011;16068;42.896;20.868;2022-12-29T00:54:12;35.63;;;19.85;;
28960;SDS011;16068;42.896;20.868;2022-12-29T00:56:58;40.90;;;22.15;;
28960;SDS011;16068;42.896;20.868;2022-12-29T00:59:46;45.65;;;23.60;;
28960;SDS011;16068;42.896;20.868;2022-12-29T01:02:33;43.33;;;23.15;;
28960;SDS011;16068;42.896;20.868;2022-12-29T01:05:21;44.10;;;22.27;;
28960;SDS011;16068;42.896;20.868;2022-12-29T01:08:06;40.90;;;21.55;;
28960;SDS011;16068;42.896;20.868;2022-12-29T01:11:08;39.25;;;21.40;;
28960;SDS011;16068;42.896;20.868;2022-12-29T01:13:56;40.03;;;19.98;;
28960;SDS011;16068;42.896;20.868;2022-12-29T01:16:49;35.57;;;18.47;;
28960;SDS011;16068;42.896;20.868;2022-12-29T01:19:35;33.42;;;17.27;;
28960;SDS011;16068;42.896;20.868;2022-12-29T01:22:21;38.72;;;17.80;;
28960;SDS011;16068;42.896;20.868;2022-12-29T01:25:06;33.55;;;17.10;;
28960;SDS011;16068;42.896;20.868;2022-12-29T01:27:52;37.78;;;18.52;;
28960;SDS011;16068;42.896;20.868;2022-12-29T01:30:38;29.90;;;17.38;;
28960;SDS011;16068;42.896;20.868;2022-12-29T01:33:24;36.38;;;18.52;;
28960;SDS011;16068;42.896;20.868;2022-12-29T01:36:11;36.42;;;19.10;;
28960;SDS011;16068;42.896;20.868;2022-12-29T01:38:58;32.80;;;18.48;;
28960;SDS011;16068;42.896;20.868;2022-12-29T01:41:45;36.88;;;17.95;;
28960;SDS011;16068;42.896;20.868;2022-12-29T01:47:41;30.77;;;17.25;;
28960;SDS011;16068;42.896;20.868;2022-12-29T01:53:31;35.67;;;16.05;;
28960;SDS011;16068;42.896;20.868;2022-12-29T01:56:20;32.60;;;16.63;;
28960;SDS011;16068;42.896;20.868;2022-12-29T01:59:08;36.00;;;18.08;;
28960;SDS011;16068;42.896;20.868;2022-12-29T02:01:59;33.35;;;18.00;;
28960;SDS011;16068;42.896;20.868;2022-12-29T02:04:45;33.75;;;17.25;;
28960;SDS011;16068;42.896;20.868;2022-12-29T02:07:35;34.50;;;17.50;;
28960;SDS011;16068;42.896;20.868;2022-12-29T02:10:21;47.15;;;20.88;;
28960;SDS011;16068;42.896;20.868;2022-12-29T02:13:09;46.85;;;23.95;;
28960;SDS011;16068;42.896;20.868;2022-12-29T02:21:56;46.50;;;24.70;;
28960;SDS011;16068;42.896;20.868;2022-12-29T02:37:03;36.22;;;20.38;;
28960;SDS011;16068;42.896;20.868;2022-12-29T02:40:18;36.78;;;18.27;;
28960;SDS011;16068;42.896;20.868;2022-12-29T02:43:18;29.20;;;16.42;;
28960;SDS011;16068;42.896;20.868;2022-12-29T02:49:10;33.63;;;17.30;;
28960;SDS011;16068;42.896;20.868;2022-12-29T02:52:20;36.13;;;18.13;;
28960;SDS011;16068;42.896;20.868;2022-12-29T02:55:10;36.53;;;18.63;;
28960;SDS011;16068;42.896;20.868;2022-12-29T03:04:17;28.63;;;15.82;;
28960;SDS011;16068;42.896;20.868;2022-12-29T03:07:38;38.05;;;16.85;;
28960;SDS011;16068;42.896;20.868;2022-12-29T03:10:45;30.05;;;16.17;;
28960;SDS011;16068;42.896;20.868;2022-12-29T03:13:49;26.15;;;15.60;;
28960;SDS011;16068;42.896;20.868;2022-12-29T03:16:59;33.95;;;16.77;;
28960;SDS011;16068;42.896;20.868;2022-12-29T03:19:47;30.98;;;16.55;;
28960;SDS011;16068;42.896;20.868;2022-12-29T03:22:36;30.98;;;16.30;;
28960;SDS011;16068;42.896;20.868;2022-12-29T03:25:35;29.00;;;16.73;;
28960;SDS011;16068;42.896;20.868;2022-12-29T03:31:16;36.58;;;14.65;;
28960;SDS011;16068;42.896;20.868;2022-12-29T03:34:02;28.27;;;15.88;;
28960;SDS011;16068;42.896;20.868;2022-12-29T03:37:11;34.45;;;17.38;;
28960;SDS011;16068;42.896;20.868;2022-12-29T03:39:58;31.52;;;15.57;;
28960;SDS011;16068;42.896;20.868;2022-12-29T03:42:44;34.08;;;18.15;;
28960;SDS011;16068;42.896;20.868;2022-12-29T03:45:31;44.58;;;17.17;;
28960;SDS011;16068;42.896;20.868;2022-12-29T03:48:17;38.47;;;17.80;;
28960;SDS011;16068;42.896;20.868;2022-12-29T03:51:04;33.30;;;18.30;;
28960;SDS011;16068;42.896;20.868;2022-12-29T03:53:50;33.60;;;19.17;;
28960;SDS011;16068;42.896;20.868;2022-12-29T03:56:36;33.55;;;17.80;;
28960;SDS011;16068;42.896;20.868;2022-12-29T03:59:22;37.13;;;20.17;;
28960;SDS011;16068;42.896;20.868;2022-12-29T04:02:09;39.05;;;17.35;;
28960;SDS011;16068;42.896;20.868;2022-12-29T04:04:55;37.05;;;17.92;;
28960;SDS011;16068;42.896;20.868;2022-12-29T04:07:41;32.95;;;17.25;;
28960;SDS011;16068;42.896;20.868;2022-12-29T04:10:27;30.70;;;16.45;;
28960;SDS011;16068;42.896;20.868;2022-12-29T04:13:16;30.25;;;15.63;;
28960;SDS011;16068;42.896;20.868;2022-12-29T04:16:02;30.55;;;15.20;;
28960;SDS011;16068;42.896;20.868;2022-12-29T04:18:49;27.92;;;14.82;;
28960;SDS011;16068;42.896;20.868;2022-12-29T04:21:35;27.00;;;14.23;;
28960;SDS011;16068;42.896;20.868;2022-12-29T04:24:21;24.42;;;14.18;;
28960;SDS011;16068;42.896;20.868;2022-12-29T04:27:08;29.17;;;15.02;;
28960;SDS011;16068;42.896;20.868;2022-12-29T04:30:12;25.45;;;13.65;;
28960;SDS011;16068;42.896;20.868;2022-12-29T04:33:11;32.50;;;17.20;;
28960;SDS011;16068;42.896;20.868;2022-12-29T04:36:00;29.38;;;16.40;;
28960;SDS011;16068;42.896;20.868;2022-12-29T04:38:47;32.28;;;17.13;;
28960;SDS011;16068;42.896;20.868;2022-12-29T04:41:32;40.95;;;20.63;;
28960;SDS011;16068;42.896;20.868;2022-12-29T04:48:32;37.92;;;17.35;;
28960;SDS011;16068;42.896;20.868;2022-12-29T04:51:52;29.75;;;15.90;;
28960;SDS011;16068;42.896;20.868;2022-12-29T04:54:38;32.88;;;16.05;;
28960;SDS011;16068;42.896;20.868;2022-12-29T04:57:31;33.00;;;15.80;;
28960;SDS011;16068;42.896;20.868;2022-12-29T05:00:18;27.33;;;13.30;;
28960;SDS011;16068;42.896;20.868;2022-12-29T05:03:05;32.38;;;12.60;;
28960;SDS011;16068;42.896;20.868;2022-12-29T05:14:01;21.15;;;11.98;;
28960;SDS011;16068;42.896;20.868;2022-12-29T05:16:47;29.10;;;12.82;;
28960;SDS011;16068;42.896;20.868;2022-12-29T05:19:33;27.27;;;12.68;;
28960;SDS011;16068;42.896;20.868;2022-12-29T05:25:26;20.95;;;11.68;;
28960;SDS011;16068;42.896;20.868;2022-12-29T05:28:22;21.30;;;11.90;;
28960;SDS011;16068;42.896;20.868;2022-12-29T05:31:34;28.83;;;12.55;;
28960;SDS011;16068;42.896;20.868;2022-12-29T05:34:22;24.55;;;13.05;;
28960;SDS011;16068;42.896;20.868;2022-12-29T05:37:09;24.83;;;12.95;;
28960;SDS011;16068;42.896;20.868;2022-12-29T05:39:58;30.75;;;12.45;;
28960;SDS011;16068;42.896;20.868;2022-12-29T05:42:46;31.90;;;13.80;;
28960;SDS011;16068;42.896;20.868;2022-12-29T05:45:55;39.20;;;15.75;;
28960;SDS011;16068;42.896;20.868;2022-12-29T05:49:03;31.05;;;15.55;;
28960;SDS011;16068;42.896;20.868;2022-12-29T05:55:31;29.80;;;12.05;;
28960;SDS011;16068;42.896;20.868;2022-12-29T05:58:17;31.98;;;11.38;;
28960;SDS011;16068;42.896;20.868;2022-12-29T06:01:05;22.67;;;10.90;;
28960;SDS011;16068;42.896;20.868;2022-12-29T06:03:55;21.25;;;11.25;;
28960;SDS011;16068;42.896;20.868;2022-12-29T06:06:41;27.13;;;11.68;;
28960;SDS011;16068;42.896;20.868;2022-12-29T06:09:37;26.48;;;12.35;;
28960;SDS011;16068;42.896;20.868;2022-12-29T06:12:26;30.48;;;12.23;;
28960;SDS011;16068;42.896;20.868;2022-12-29T06:15:13;23.60;;;11.20;;
28960;SDS011;16068;42.896;20.868;2022-12-29T06:18:00;34.00;;;12.75;;
28960;SDS011;16068;42.896;20.868;2022-12-29T06:20:48;25.67;;;14.20;;
28960;SDS011;16068;42.896;20.868;2022-12-29T06:23:36;25.85;;;13.68;;
28960;SDS011;16068;42.896;20.868;2022-12-29T06:26:26;42.80;;;15.68;;
28960;SDS011;16068;42.896;20.868;2022-12-29T06:29:15;34.63;;;15.60;;
28960;SDS011;16068;42.896;20.868;2022-12-29T06:35:30;30.90;;;13.88;;
28960;SDS011;16068;42.896;20.868;2022-12-29T06:41:25;41.55;;;15.02;;
28960;SDS011;16068;42.896;20.868;2022-12-29T06:44:40;43.97;;;14.23;;
28960;SDS011;16068;42.896;20.868;2022-12-29T06:47:27;31.27;;;12.73;;
28960;SDS011;16068;42.896;20.868;2022-12-29T06:50:13;46.70;;;13.90;;
28960;SDS011;16068;42.896;20.868;2022-12-29T06:52:59;26.52;;;12.48;;
28960;SDS011;16068;42.896;20.868;2022-12-29T06:55:45;36.80;;;13.40;;
28960;SDS011;16068;42.896;20.868;2022-12-29T06:58:31;34.67;;;13.73;;
28960;SDS011;16068;42.896;20.868;2022-12-29T07:01:17;36.65;;;14.40;;
28960;SDS011;16068;42.896;20.868;2022-12-29T07:04:04;30.67;;;13.77;;
28960;SDS011;16068;42.896;20.868;2022-12-29T07:06:50;39.10;;;14.73;;
28960;SDS011;16068;42.896;20.868;2022-12-29T07:09:36;34.95;;;15.15;;
28960;SDS011;16068;42.896;20.868;2022-12-29T07:12:21;41.10;;;14.85;;
28960;SDS011;16068;42.896;20.868;2022-12-29T07:15:08;50.35;;;15.50;;
28960;SDS011;16068;42.896;20.868;2022-12-29T07:17:54;41.15;;;13.82;;
28960;SDS011;16068;42.896;20.868;2022-12-29T07:20:40;30.17;;;13.13;;
28960;SDS011;16068;42.896;20.868;2022-12-29T07:23:25;43.15;;;15.70;;
28960;SDS011;16068;42.896;20.868;2022-12-29T07:26:12;32.00;;;14.98;;
28960;SDS011;16068;42.896;20.868;2022-12-29T07:29:00;39.67;;;14.80;;
28960;SDS011;16068;42.896;20.868;2022-12-29T07:31:46;38.15;;;15.02;;
28960;SDS011;16068;42.896;20.868;2022-12-29T07:34:32;37.05;;;15.55;;
28960;SDS011;16068;42.896;20.868;2022-12-29T07:37:17;41.85;;;16.67;;
28960;SDS011;16068;42.896;20.868;2022-12-29T07:40:04;39.15;;;16.27;;
28960;SDS011;16068;42.896;20.868;2022-12-29T07:42:50;36.50;;;17.83;;
28960;SDS011;16068;42.896;20.868;2022-12-29T07:45:44;50.83;;;19.00;;
28960;SDS011;16068;42.896;20.868;2022-12-29T07:48:29;52.55;;;19.58;;
28960;SDS011;16068;42.896;20.868;2022-12-29T07:51:15;40.42;;;18.40;;
28960;SDS011;16068;42.896;20.868;2022-12-29T07:54:01;39.47;;;18.17;;
28960;SDS011;16068;42.896;20.868;2022-12-29T07:56:47;51.33;;;18.17;;
28960;SDS011;16068;42.896;20.868;2022-12-29T07:59:32;40.88;;;20.88;;
28960;SDS011;16068;42.896;20.868;2022-12-29T08:02:18;39.83;;;20.83;;
28960;SDS011;16068;42.896;20.868;2022-12-29T08:05:04;49.70;;;24.85;;
28960;SDS011;16068;42.896;20.868;2022-12-29T08:07:50;49.40;;;26.25;;
28960;SDS011;16068;42.896;20.868;2022-12-29T08:10:36;52.13;;;27.88;;
28960;SDS011;16068;42.896;20.868;2022-12-29T08:13:22;59.45;;;31.65;;
28960;SDS011;16068;42.896;20.868;2022-12-29T08:16:14;59.28;;;28.38;;
28960;SDS011;16068;42.896;20.868;2022-12-29T08:19:00;40.15;;;22.38;;
28960;SDS011;16068;42.896;20.868;2022-12-29T08:21:47;46.35;;;20.77;;
28960;SDS011;16068;42.896;20.868;2022-12-29T08:24:32;35.38;;;19.30;;
28960;SDS011;16068;42.896;20.868;2022-12-29T08:27:25;45.40;;;21.05;;
28960;SDS011;16068;42.896;20.868;2022-12-29T08:33:33;38.00;;;19.30;;
28960;SDS011;16068;42.896;20.868;2022-12-29T08:36:19;36.17;;;20.95;;
28960;SDS011;16068;42.896;20.868;2022-12-29T08:39:05;40.10;;;24.02;;
28960;SDS011;16068;42.896;20.868;2022-12-29T08:41:55;41.65;;;23.00;;
28960;SDS011;16068;42.896;20.868;2022-12-29T08:44:45;48.47;;;27.55;;
28960;SDS011;16068;42.896;20.868;2022-12-29T08:47:31;48.00;;;24.95;;
28960;SDS011;16068;42.896;20.868;2022-12-29T08:50:16;62.97;;;28.17;;
28960;SDS011;16068;42.896;20.868;2022-12-29T08:53:03;52.08;;;26.02;;
28960;SDS011;16068;42.896;20.868;2022-12-29T08:55:54;48.88;;;26.35;;
28960;SDS011;16068;42.896;20.868;2022-12-29T08:59:01;53.88;;;27.45;;
28960;SDS011;16068;42.896;20.868;2022-12-29T09:01:48;57.28;;;31.63;;
28960;SDS011;16068;42.896;20.868;2022-12-29T09:04:34;55.58;;;30.63;;
28960;SDS011;16068;42.896;20.868;2022-12-29T09:07:21;52.85;;;29.70;;
28960;SDS011;16068;42.896;20.868;2022-12-29T09:10:06;63.58;;;32.70;;
28960;SDS011;16068;42.896;20.868;2022-12-29T09:12:52;65.82;;;29.25;;
28960;SDS011;16068;42.896;20.868;2022-12-29T09:15:38;59.10;;;29.25;;
28960;SDS011;16068;42.896;20.868;2022-12-29T09:18:24;54.42;;;27.40;;
28960;SDS011;16068;42.896;20.868;2022-12-29T09:21:11;49.90;;;25.65;;
28960;SDS011;16068;42.896;20.868;2022-12-29T09:23:57;54.05;;;28.33;;
28960;SDS011;16068;42.896;20.868;2022-12-29T09:26:43;65.35;;;27.08;;
28960;SDS011;16068;42.896;20.868;2022-12-29T09:29:36;57.92;;;23.00;;
28960;SDS011;16068;42.896;20.868;2022-12-29T09:32:22;148.50;;;73.82;;
28960;SDS011;16068;42.896;20.868;2022-12-29T09:35:09;456.05;;;258.88;;
28960;SDS011;16068;42.896;20.868;2022-12-29T09:37:55;304.23;;;160.70;;
28960;SDS011;16068;42.896;20.868;2022-12-29T09:40:41;147.93;;;80.85;;
28960;SDS011;16068;42.896;20.868;2022-12-29T09:46:58;486.88;;;272.52;;
28960;SDS011;16068;42.896;20.868;2022-12-29T09:49:47;82.53;;;41.08;;
28960;SDS011;16068;42.896;20.868;2022-12-29T09:52:40;64.63;;;32.45;;
28960;SDS011;16068;42.896;20.868;2022-12-29T09:55:36;59.70;;;32.40;;
28960;SDS011;16068;42.896;20.868;2022-12-29T10:01:32;64.60;;;33.85;;
28960;SDS011;16068;42.896;20.868;2022-12-29T10:04:25;66.03;;;28.65;;
28960;SDS011;16068;42.896;20.868;2022-12-29T10:22:23;72.60;;;41.50;;
28960;SDS011;16068;42.896;20.868;2022-12-29T10:25:21;81.75;;;42.42;;
28960;SDS011;16068;42.896;20.868;2022-12-29T10:28:21;70.63;;;39.88;;
28960;SDS011;16068;42.896;20.868;2022-12-29T10:31:54;64.00;;;37.85;;
28960;SDS011;16068;42.896;20.868;2022-12-29T10:34:31;72.70;;;41.05;;
28960;SDS011;16068;42.896;20.868;2022-12-29T10:43:56;143.63;;;76.50;;
28960;SDS011;16068;42.896;20.868;2022-12-29T10:46:44;125.78;;;61.47;;
28960;SDS011;16068;42.896;20.868;2022-12-29T10:49:41;83.85;;;46.63;;
28960;SDS011;16068;42.896;20.868;2022-12-29T10:52:28;88.18;;;48.10;;
28960;SDS011;16068;42.896;20.868;2022-12-29T10:55:19;77.15;;;44.85;;
28960;SDS011;16068;42.896;20.868;2022-12-29T10:58:10;75.95;;;41.20;;
28960;SDS011;16068;42.896;20.868;2022-12-29T11:00:58;56.95;;;32.88;;
28960;SDS011;16068;42.896;20.868;2022-12-29T11:03:58;45.55;;;25.05;;
28960;SDS011;16068;42.896;20.868;2022-12-29T11:06:49;37.03;;;20.50;;
28960;SDS011;16068;42.896;20.868;2022-12-29T11:09:36;33.40;;;20.42;;
28960;SDS011;16068;42.896;20.868;2022-12-29T11:12:40;36.60;;;19.15;;
28960;SDS011;16068;42.896;20.868;2022-12-29T11:15:26;35.50;;;20.38;;
28960;SDS011;16068;42.896;20.868;2022-12-29T11:18:47;34.30;;;18.00;;
28960;SDS011;16068;42.896;20.868;2022-12-29T11:21:38;24.33;;;13.52;;
28960;SDS011;16068;42.896;20.868;2022-12-29T11:24:30;24.77;;;14.88;;
28960;SDS011;16068;42.896;20.868;2022-12-29T11:27:23;27.25;;;13.25;;
28960;SDS011;16068;42.896;20.868;2022-12-29T11:30:24;23.80;;;16.15;;
28960;SDS011;16068;42.896;20.868;2022-12-29T11:33:13;32.30;;;16.08;;
28960;SDS011;16068;42.896;20.868;2022-12-29T11:38:49;27.85;;;14.60;;
28960;SDS011;16068;42.896;20.868;2022-12-29T11:41:37;32.42;;;14.85;;
28960;SDS011;16068;42.896;20.868;2022-12-29T11:44:23;26.27;;;14.55;;
28960;SDS011;16068;42.896;20.868;2022-12-29T11:47:11;21.60;;;13.00;;
28960;SDS011;16068;42.896;20.868;2022-12-29T11:50:06;27.27;;;14.23;;
28960;SDS011;16068;42.896;20.868;2022-12-29T11:53:07;20.23;;;13.13;;
28960;SDS011;16068;42.896;20.868;2022-12-29T11:56:08;22.52;;;13.77;;
28960;SDS011;16068;42.896;20.868;2022-12-29T11:58:55;25.90;;;13.80;;
28960;SDS011;16068;42.896;20.868;2022-12-29T12:01:41;25.27;;;14.38;;
28960;SDS011;16068;42.896;20.868;2022-12-29T12:04:29;26.90;;;13.05;;
28960;SDS011;16068;42.896;20.868;2022-12-29T12:07:17;21.17;;;13.57;;
28960;SDS011;16068;42.896;20.868;2022-12-29T12:10:10;27.17;;;15.38;;
28960;SDS011;16068;42.896;20.868;2022-12-29T12:16:12;23.85;;;14.85;;
28960;SDS011;16068;42.896;20.868;2022-12-29T12:19:04;27.25;;;14.95;;
28960;SDS011;16068;42.896;20.868;2022-12-29T12:22:07;27.45;;;15.13;;
28960;SDS011;16068;42.896;20.868;2022-12-29T12:27:56;26.45;;;15.75;;
28960;SDS011;16068;42.896;20.868;2022-12-29T12:30:45;35.45;;;16.70;;
28960;SDS011;16068;42.896;20.868;2022-12-29T12:33:39;32.53;;;17.27;;
28960;SDS011;16068;42.896;20.868;2022-12-29T12:37:18;30.02;;;17.55;;
28960;SDS011;16068;42.896;20.868;2022-12-29T12:46:15;69.65;;;38.45;;
28960;SDS011;16068;42.896;20.868;2022-12-29T12:52:12;32.58;;;18.35;;
28960;SDS011;16068;42.896;20.868;2022-12-29T12:55:40;38.22;;;21.95;;
28960;SDS011;16068;42.896;20.868;2022-12-29T13:11:39;35.90;;;16.25;;
28960;SDS011;16068;42.896;20.868;2022-12-29T13:17:56;32.58;;;16.42;;
28960;SDS011;16068;42.896;20.868;2022-12-29T13:20:59;42.55;;;15.65;;
28960;SDS011;16068;42.896;20.868;2022-12-29T13:24:01;27.27;;;14.20;;
28960;SDS011;16068;42.896;20.868;2022-12-29T13:30:11;30.88;;;17.42;;
28960;SDS011;16068;42.896;20.868;2022-12-29T13:33:05;36.15;;;19.08;;
28960;SDS011;16068;42.896;20.868;2022-12-29T13:36:19;39.00;;;22.20;;
28960;SDS011;16068;42.896;20.868;2022-12-29T13:39:34;43.00;;;23.30;;
28960;SDS011;16068;42.896;20.868;2022-12-29T13:42:23;35.30;;;20.40;;
28960;SDS011;16068;42.896;20.868;2022-12-29T13:45:31;40.38;;;20.45;;
28960;SDS011;16068;42.896;20.868;2022-12-29T13:48:17;42.17;;;21.27;;
28960;SDS011;16068;42.896;20.868;2022-12-29T13:51:07;39.30;;;21.35;;
28960;SDS011;16068;42.896;20.868;2022-12-29T14:05:26;47.15;;;26.45;;
28960;SDS011;16068;42.896;20.868;2022-12-29T14:08:16;45.63;;;23.67;;
28960;SDS011;16068;42.896;20.868;2022-12-29T14:11:06;47.10;;;26.10;;
28960;SDS011;16068;42.896;20.868;2022-12-29T14:13:57;60.03;;;28.10;;
28960;SDS011;16068;42.896;20.868;2022-12-29T14:16:43;67.45;;;30.90;;
28960;SDS011;16068;42.896;20.868;2022-12-29T14:19:38;60.15;;;28.75;;
28960;SDS011;16068;42.896;20.868;2022-12-29T14:22:26;47.67;;;27.45;;
28960;SDS011;16068;42.896;20.868;2022-12-29T14:28:45;54.47;;;27.70;;
28960;SDS011;16068;42.896;20.868;2022-12-29T14:31:34;49.47;;;28.17;;
28960;SDS011;16068;42.896;20.868;2022-12-29T14:37:17;57.95;;;28.15;;
28960;SDS011;16068;42.896;20.868;2022-12-29T14:40:28;66.63;;;30.88;;
28960;SDS011;16068;42.896;20.868;2022-12-29T14:43:17;60.80;;;28.70;;
28960;SDS011;16068;42.896;20.868;2022-12-29T14:46:11;56.88;;;29.98;;
28960;SDS011;16068;42.896;20.868;2022-12-29T14:48:57;55.08;;;30.13;;
28960;SDS011;16068;42.896;20.868;2022-12-29T14:51:44;52.97;;;28.75;;
28960;SDS011;16068;42.896;20.868;2022-12-29T15:00:16;61.67;;;32.33;;
28960;SDS011;16068;42.896;20.868;2022-12-29T15:03:17;50.03;;;29.38;;
28960;SDS011;16068;42.896;20.868;2022-12-29T15:06:08;53.15;;;31.65;;
28960;SDS011;16068;42.896;20.868;2022-12-29T15:11:51;66.43;;;33.95;;
28960;SDS011;16068;42.896;20.868;2022-12-29T15:14:47;53.50;;;27.98;;
28960;SDS011;16068;42.896;20.868;2022-12-29T15:17:36;61.05;;;30.95;;
28960;SDS011;16068;42.896;20.868;2022-12-29T15:20:28;48.50;;;28.55;;
28960;SDS011;16068;42.896;20.868;2022-12-29T15:23:15;63.13;;;29.70;;
28960;SDS011;16068;42.896;20.868;2022-12-29T15:26:06;70.20;;;32.85;;
28960;SDS011;16068;42.896;20.868;2022-12-29T15:28:53;55.38;;;29.35;;
28960;SDS011;16068;42.896;20.868;2022-12-29T15:31:47;60.00;;;31.60;;
28960;SDS011;16068;42.896;20.868;2022-12-29T15:34:34;60.70;;;32.72;;
28960;SDS011;16068;42.896;20.868;2022-12-29T15:37:27;70.03;;;30.90;;
28960;SDS011;16068;42.896;20.868;2022-12-29T15:40:29;55.85;;;32.45;;
28960;SDS011;16068;42.896;20.868;2022-12-29T15:43:37;67.28;;;34.78;;
28960;SDS011;16068;42.896;20.868;2022-12-29T15:46:46;62.83;;;33.45;;
28960;SDS011;16068;42.896;20.868;2022-12-29T15:49:36;63.22;;;34.95;;
28960;SDS011;16068;42.896;20.868;2022-12-29T15:52:23;67.65;;;39.13;;
28960;SDS011;16068;42.896;20.868;2022-12-29T15:58:28;73.85;;;38.63;;
28960;SDS011;16068;42.896;20.868;2022-12-29T16:04:06;73.22;;;40.03;;
28960;SDS011;16068;42.896;20.868;2022-12-29T16:07:04;92.60;;;41.22;;
28960;SDS011;16068;42.896;20.868;2022-12-29T16:09:55;86.03;;;41.35;;
28960;SDS011;16068;42.896;20.868;2022-12-29T16:12:43;78.07;;;42.45;;
28960;SDS011;16068;42.896;20.868;2022-12-29T16:15:29;90.25;;;45.95;;
28960;SDS011;16068;42.896;20.868;2022-12-29T16:18:24;86.13;;;44.40;;
28960;SDS011;16068;42.896;20.868;2022-12-29T16:21:26;92.75;;;46.25;;
28960;SDS011;16068;42.896;20.868;2022-12-29T16:24:23;108.10;;;49.25;;
28960;SDS011;16068;42.896;20.868;2022-12-29T16:27:21;96.50;;;51.08;;
28960;SDS011;16068;42.896;20.868;2022-12-29T16:30:22;116.25;;;50.97;;
28960;SDS011;16068;42.896;20.868;2022-12-29T16:36:56;109.35;;;47.42;;
28960;SDS011;16068;42.896;20.868;2022-12-29T16:39:49;108.60;;;50.35;;
28960;SDS011;16068;42.896;20.868;2022-12-29T16:42:43;102.97;;;51.00;;
28960;SDS011;16068;42.896;20.868;2022-12-29T16:48:36;108.40;;;50.63;;
28960;SDS011;16068;42.896;20.868;2022-12-29T16:51:35;91.40;;;45.67;;
28960;SDS011;16068;42.896;20.868;2022-12-29T16:54:40;127.85;;;63.17;;
28960;SDS011;16068;42.896;20.868;2022-12-29T16:57:38;116.93;;;59.67;;
28960;SDS011;16068;42.896;20.868;2022-12-29T17:00:24;147.35;;;68.35;;
28960;SDS011;16068;42.896;20.868;2022-12-29T17:03:12;132.77;;;63.60;;
28960;SDS011;16068;42.896;20.868;2022-12-29T17:05:59;143.02;;;67.65;;
28960;SDS011;16068;42.896;20.868;2022-12-29T17:08:45;135.88;;;67.22;;
28960;SDS011;16068;42.896;20.868;2022-12-29T17:11:32;119.72;;;59.90;;
28960;SDS011;16068;42.896;20.868;2022-12-29T17:14:46;100.68;;;56.67;;
28960;SDS011;16068;42.896;20.868;2022-12-29T17:17:44;99.35;;;53.13;;
28960;SDS011;16068;42.896;20.868;2022-12-29T17:20:31;113.47;;;60.15;;
28960;SDS011;16068;42.896;20.868;2022-12-29T17:23:17;119.90;;;61.17;;
28960;SDS011;16068;42.896;20.868;2022-12-29T17:26:15;112.53;;;62.42;;
28960;SDS011;16068;42.896;20.868;2022-12-29T17:29:01;83.50;;;44.58;;
28960;SDS011;16068;42.896;20.868;2022-12-29T17:31:48;74.15;;;35.00;;
28960;SDS011;16068;42.896;20.868;2022-12-29T17:34:33;62.17;;;28.02;;
28960;SDS011;16068;42.896;20.868;2022-12-29T17:40:11;51.20;;;24.63;;
28960;SDS011;16068;42.896;20.868;2022-12-29T17:42:59;57.85;;;25.75;;
28960;SDS011;16068;42.896;20.868;2022-12-29T17:45:46;65.93;;;28.02;;
28960;SDS011;16068;42.896;20.868;2022-12-29T17:48:35;69.82;;;29.23;;
28960;SDS011;16068;42.896;20.868;2022-12-29T17:51:21;44.20;;;24.30;;
28960;SDS011;16068;42.896;20.868;2022-12-29T17:54:12;53.80;;;23.90;;
28960;SDS011;16068;42.896;20.868;2022-12-29T17:57:04;48.08;;;22.48;;
28960;SDS011;16068;42.896;20.868;2022-12-29T17:59:50;61.75;;;22.20;;
28960;SDS011;16068;42.896;20.868;2022-12-29T18:02:36;40.78;;;22.27;;
28960;SDS011;16068;42.896;20.868;2022-12-29T18:05:24;53.45;;;20.55;;
28960;SDS011;16068;42.896;20.868;2022-12-29T18:08:11;44.78;;;21.45;;
28960;SDS011;16068;42.896;20.868;2022-12-29T18:10:57;50.70;;;22.40;;
28960;SDS011;16068;42.896;20.868;2022-12-29T18:13:43;51.05;;;24.27;;
28960;SDS011;16068;42.896;20.868;2022-12-29T18:16:31;43.20;;;21.40;;
28960;SDS011;16068;42.896;20.868;2022-12-29T18:19:16;38.85;;;19.38;;
28960;SDS011;16068;42.896;20.868;2022-12-29T18:22:02;39.70;;;21.67;;
28960;SDS011;16068;42.896;20.868;2022-12-29T18:24:48;59.13;;;27.40;;
28960;SDS011;16068;42.896;20.868;2022-12-29T18:27:35;58.38;;;24.83;;
28960;SDS011;16068;42.896;20.868;2022-12-29T18:30:20;39.58;;;20.58;;
28960;SDS011;16068;42.896;20.868;2022-12-29T18:33:10;45.00;;;21.73;;
28960;SDS011;16068;42.896;20.868;2022-12-29T18:36:08;52.50;;;26.70;;
28960;SDS011;16068;42.896;20.868;2022-12-29T18:38:54;118.53;;;64.22;;
28960;SDS011;16068;42.896;20.868;2022-12-29T18:41:40;145.25;;;70.75;;
28960;SDS011;16068;42.896;20.868;2022-12-29T18:44:26;167.07;;;88.82;;
28960;SDS011;16068;42.896;20.868;2022-12-29T18:47:12;92.60;;;47.75;;
28960;SDS011;16068;42.896;20.868;2022-12-29T18:49:58;133.23;;;73.22;;
28960;SDS011;16068;42.896;20.868;2022-12-29T18:52:44;60.05;;;30.48;;
28960;SDS011;16068;42.896;20.868;2022-12-29T18:55:31;59.47;;;26.08;;
28960;SDS011;16068;42.896;20.868;2022-12-29T18:58:17;49.60;;;22.85;;
28960;SDS011;16068;42.896;20.868;2022-12-29T19:01:03;44.38;;;21.25;;
28960;SDS011;16068;42.896;20.868;2022-12-29T19:03:51;41.95;;;22.42;;
28960;SDS011;16068;42.896;20.868;2022-12-29T19:06:37;46.28;;;20.98;;
28960;SDS011;16068;42.896;20.868;2022-12-29T19:09:23;42.95;;;22.38;;
28960;SDS011;16068;42.896;20.868;2022-12-29T19:12:12;49.45;;;25.15;;
28960;SDS011;16068;42.896;20.868;2022-12-29T19:15:00;52.75;;;23.02;;
28960;SDS011;16068;42.896;20.868;2022-12-29T19:17:47;58.90;;;24.38;;
28960;SDS011;16068;42.896;20.868;2022-12-29T19:20:54;50.60;;;25.27;;
28960;SDS011;16068;42.896;20.868;2022-12-29T19:23:41;52.45;;;25.33;;
28960;SDS011;16068;42.896;20.868;2022-12-29T19:26:34;46.63;;;26.17;;
28960;SDS011;16068;42.896;20.868;2022-12-29T19:29:21;51.28;;;27.02;;
28960;SDS011;16068;42.896;20.868;2022-12-29T19:32:07;50.13;;;26.05;;